Time;durP1;ratioP1;P1;durP2;ratioP2;P2;SDS_P1;SDS_P2;PMS_P1;PMS_P2;Temp;Humidity;BMP_temperature;BMP_pressure;BME280_temperature;BME280_humidity;BME280_pressure;Samples;Min_cycle;Max_cycle;Signal;HPM_P1;HPM_P2
2022/04/25 00:01:30;;;;;;;;;8.75;8.75;;;;;10.23;75.19;-18758.66;5018399;28;10799;-70
2022/04/25 00:03:57;;;;;;;;;15.25;14.25;;;;;10.09;75.48;-18754.44;5027374;28;10666;-71
2022/04/25 00:06:24;;;;;;;;;11.00;11.00;;;;;10.14;75.04;-18755.94;5026169;28;10823;-71
2022/04/25 00:08:50;;;;;;;;;13.00;11.00;;;;;9.99;75.89;-18751.56;5029820;28;10821;-71
2022/04/25 00:11:17;;;;;;;;;13.25;10.25;;;;;10.12;75.72;-18755.47;5025876;28;10968;-70
2022/04/25 00:13:43;;;;;;;;;11.75;10.75;;;;;10.21;75.05;-18757.91;5028762;28;10832;-70
2022/04/25 00:16:10;;;;;;;;;15.25;13.00;;;;;10.14;75.19;-18755.94;5028227;28;10771;-71
2022/04/25 00:18:37;;;;;;;;;13.75;11.50;;;;;9.96;75.85;-18750.50;5030281;28;11549;-71
2022/04/25 00:21:03;;;;;;;;;10.25;9.75;;;;;10.07;75.76;-18753.97;5018345;28;10920;-71
2022/04/25 00:23:30;;;;;;;;;10.75;10.25;;;;;10.13;75.54;-18755.78;5015906;28;10942;-71
2022/04/25 00:25:57;;;;;;;;;9.75;8.00;;;;;10.18;75.40;-18757.16;5030807;28;10688;-71
2022/04/25 00:28:23;;;;;;;;;17.50;12.75;;;;;10.07;74.61;-18753.97;5018327;28;10782;-71
2022/04/25 00:30:50;;;;;;;;;12.75;11.00;;;;;10.12;75.15;-18755.31;5013887;28;10879;-71
2022/04/25 00:33:16;;;;;;;;;9.25;6.25;;;;;10.10;74.89;-18754.72;5024518;28;10845;-70
2022/04/25 00:35:43;;;;;;;;;15.75;14.00;;;;;10.07;74.98;-18753.81;5033467;28;10695;-71
2022/04/25 00:38:09;;;;;;;;;13.25;12.25;;;;;10.04;75.24;-18752.91;5020890;28;10833;-71
2022/04/25 00:40:36;;;;;;;;;15.00;12.00;;;;;10.01;74.95;-18752.00;5013192;28;11529;-70
2022/04/25 00:43:03;;;;;;;;;14.75;10.00;;;;;10.02;75.04;-18752.47;5031274;28;10912;-68
2022/04/25 00:45:32;;;;;;;;;7.75;6.50;;;;;10.10;75.25;-18754.88;5025071;28;10710;-69
2022/04/25 00:47:59;;;;;;;;;12.25;11.50;;;;;10.07;74.96;-18753.81;5029485;28;10622;-69
2022/04/25 00:50:26;;;;;;;;;12.00;11.50;;;;;9.96;75.36;-18750.66;5033273;28;10763;-69
2022/04/25 00:52:52;;;;;;;;;11.75;10.50;;;;;10.08;74.99;-18754.13;5013861;28;10824;-68
2022/04/25 00:55:19;;;;;;;;;13.00;9.25;;;;;10.10;75.15;-18754.72;5013358;28;10624;-69
2022/04/25 00:57:46;;;;;;;;;10.75;10.75;;;;;10.22;74.47;-18758.34;5018835;28;10760;-67
2022/04/25 01:00:13;;;;;;;;;12.50;10.75;;;;;10.31;74.38;-18761.06;5031951;28;10727;-67
2022/04/25 01:02:40;;;;;;;;;8.00;8.00;;;;;10.22;74.57;-18758.19;5032495;28;10780;-69
2022/04/25 01:05:08;;;;;;;;;10.50;9.75;;;;;10.35;74.24;-18762.13;5013059;28;11624;-70
2022/04/25 01:07:36;;;;;;;;;11.75;11.25;;;;;10.20;74.44;-18757.59;5012721;28;10810;-70
2022/04/25 01:10:07;;;;;;;;;12.00;8.00;;;;;10.14;74.15;-18755.94;5021270;28;10629;-70
2022/04/25 01:12:33;;;;;;;;;12.75;8.75;;;;;10.14;74.86;-18755.94;5013401;28;10564;-70
2022/04/25 01:15:09;;;;;;;;;13.50;10.00;;;;;10.11;74.63;-18755.03;5032448;28;10829;-70
2022/04/25 01:17:35;;;;;;;;;13.75;13.00;;;;;9.99;74.65;-18751.41;5023084;28;10751;-70
2022/04/25 01:20:03;;;;;;;;;6.50;6.50;;;;;9.88;75.63;-18748.22;5012754;28;10897;-71
2022/04/25 01:22:41;;;;;;;;;9.75;9.00;;;;;9.88;75.19;-18748.22;5013716;28;10533;-70
2022/04/25 01:27:54;;;;;;;;;5.00;5.00;;;;;10.00;74.84;-18751.84;5026268;28;10907;-69
2022/04/25 01:30:21;;;;;;;;;11.50;11.50;;;;;9.88;74.44;-18748.22;5031549;28;10616;-68
2022/04/25 01:32:48;;;;;;;;;9.25;8.00;;;;;9.72;75.70;-18743.56;5020061;28;11005;-69
2022/04/25 01:35:14;;;;;;;;;12.25;11.00;;;;;9.55;76.15;-18738.56;5029675;28;10701;-71
2022/04/25 01:37:40;;;;;;;;;14.75;11.25;;;;;9.50;75.90;-18737.06;5031101;28;10816;-69
2022/04/25 01:40:07;;;;;;;;;9.00;9.00;;;;;9.62;76.22;-18740.38;5032200;28;10800;-69
2022/04/25 01:42:34;;;;;;;;;7.25;7.00;;;;;9.49;77.34;-18736.78;5018387;28;10761;-69
2022/04/25 01:45:00;;;;;;;;;12.75;12.75;;;;;9.69;76.19;-18742.50;5020297;28;10732;-70
2022/04/25 01:47:27;;;;;;;;;10.75;8.50;;;;;9.71;76.68;-18743.25;5027455;28;10974;-70
2022/04/25 01:49:53;;;;;;;;;6.50;6.50;;;;;9.79;75.92;-18745.66;5031709;28;10973;-70
2022/04/25 01:52:29;;;;;;;;;11.25;11.25;;;;;9.78;76.32;-18745.38;5032087;28;10949;-70
2022/04/25 01:54:57;;;;;;;;;10.00;9.75;;;;;9.71;75.97;-18743.09;5029595;28;10873;-70
2022/04/25 01:57:24;;;;;;;;;10.50;10.50;;;;;9.76;76.86;-18744.63;5025557;28;11481;-70
2022/04/25 01:59:51;;;;;;;;;12.50;9.25;;;;;9.69;76.44;-18742.50;5024529;28;10618;-70
2022/04/25 02:02:18;;;;;;;;;8.25;7.00;;;;;9.74;77.26;-18744.00;5013489;28;10779;-70
2022/04/25 02:04:45;;;;;;;;;15.75;14.00;;;;;9.79;76.91;-18745.66;5031206;28;11507;-70
2022/04/25 02:07:12;;;;;;;;;13.00;9.00;;;;;9.64;77.65;-18741.00;5029232;28;10771;-70
2022/04/25 02:09:38;;;;;;;;;8.75;8.75;;;;;9.76;77.80;-18744.75;5020648;28;10699;-70
2022/04/25 02:12:06;;;;;;;;;9.00;8.75;;;;;9.73;77.97;-18743.88;5024996;28;10579;-71
2022/04/25 02:14:33;;;;;;;;;10.25;6.00;;;;;9.81;77.73;-18746.28;5029170;28;11016;-70
2022/04/25 02:17:00;;;;;;;;;12.50;11.50;;;;;9.73;78.79;-18743.88;5031474;28;10529;-70
2022/04/25 02:19:28;;;;;;;;;7.75;7.75;;;;;9.78;78.81;-18745.22;5031080;28;10734;-70
2022/04/25 02:21:56;;;;;;;;;9.25;6.00;;;;;9.95;78.59;-18750.19;5013716;28;11474;-70
2022/04/25 02:24:23;;;;;;;;;12.25;10.00;;;;;9.97;78.04;-18750.97;5029203;28;10759;-70
2022/04/25 02:26:50;;;;;;;;;8.25;8.25;;;;;10.02;78.13;-18752.47;5028503;28;10873;-70
2022/04/25 02:29:18;;;;;;;;;15.25;13.25;;;;;9.99;78.21;-18751.41;5021463;28;10798;-71
2022/04/25 02:31:45;;;;;;;;;7.00;7.00;;;;;9.92;78.50;-18749.44;5014909;28;10724;-71
2022/04/25 02:34:11;;;;;;;;;4.75;4.00;;;;;10.12;78.26;-18755.31;5030527;28;10551;-70
2022/04/25 02:36:38;;;;;;;;;9.00;8.00;;;;;9.99;78.07;-18751.56;5024444;28;11165;-70
2022/04/25 02:39:04;;;;;;;;;9.25;7.25;;;;;9.99;78.38;-18751.41;5020014;28;10687;-71
2022/04/25 02:41:31;;;;;;;;;10.00;8.00;;;;;10.03;78.82;-18752.75;5030884;28;10653;-70
2022/04/25 02:43:57;;;;;;;;;11.50;10.25;;;;;10.04;78.07;-18752.91;5030485;28;10614;-70
2022/04/25 02:46:24;;;;;;;;;12.00;12.00;;;;;9.97;77.87;-18750.81;5019472;28;10645;-70
2022/04/25 02:48:51;;;;;;;;;19.50;18.50;;;;;9.87;78.28;-18747.94;5028919;28;10629;-71
2022/04/25 02:51:17;;;;;;;;;16.00;16.00;;;;;9.87;78.09;-18747.94;5030950;28;11089;-70
2022/04/25 02:53:44;;;;;;;;;14.00;14.00;;;;;10.04;77.76;-18753.06;5030843;28;10881;-70
2022/04/25 02:56:11;;;;;;;;;18.75;13.75;;;;;10.04;77.86;-18752.91;5025528;28;10882;-70
2022/04/25 02:58:38;;;;;;;;;10.50;10.50;;;;;10.03;77.80;-18752.75;5027083;28;10957;-71
2022/04/25 03:01:06;;;;;;;;;13.25;13.00;;;;;9.91;78.43;-18749.13;5028938;28;11518;-70
2022/04/25 03:03:35;;;;;;;;;12.00;12.00;;;;;9.95;78.81;-18750.34;5028992;28;10715;-71
2022/04/25 03:06:04;;;;;;;;;10.50;10.00;;;;;10.06;78.92;-18753.66;5009552;28;10670;-71
2022/04/25 03:08:31;;;;;;;;;16.75;15.25;;;;;10.04;78.27;-18752.91;5030223;28;11704;-70
2022/04/25 03:10:57;;;;;;;;;12.00;11.25;;;;;9.94;78.82;-18750.06;5020502;28;10996;-70
2022/04/25 03:13:24;;;;;;;;;16.75;14.75;;;;;10.03;78.68;-18752.75;5029113;28;10722;-71
2022/04/25 03:15:52;;;;;;;;;14.50;12.75;;;;;10.04;77.79;-18753.06;5020674;28;11062;-70
2022/04/25 03:18:19;;;;;;;;;13.50;11.25;;;;;9.99;77.93;-18751.56;5010358;28;10880;-70
2022/04/25 03:20:48;;;;;;;;;16.50;14.50;;;;;9.92;77.89;-18749.44;5015277;28;10980;-70
2022/04/25 03:23:16;;;;;;;;;12.75;10.25;;;;;9.97;77.65;-18750.97;5030141;28;11000;-71
2022/04/25 03:25:43;;;;;;;;;11.75;11.75;;;;;10.05;77.53;-18753.22;5022039;28;10885;-70
2022/04/25 03:28:09;;;;;;;;;15.00;13.75;;;;;10.03;76.71;-18752.75;5026605;28;10758;-71
2022/04/25 03:30:35;;;;;;;;;16.50;14.75;;;;;9.93;77.43;-18749.59;5027799;28;10994;-70
2022/04/25 03:33:03;;;;;;;;;14.00;11.50;;;;;10.00;77.82;-18751.72;5015700;28;10881;-70
2022/04/25 03:35:30;;;;;;;;;12.50;12.25;;;;;9.90;77.77;-18748.69;5027138;28;10971;-70
2022/04/25 03:37:58;;;;;;;;;19.25;14.50;;;;;9.97;77.89;-18750.97;5027992;28;10923;-70
2022/04/25 03:40:24;;;;;;;;;14.00;13.25;;;;;9.88;78.15;-18748.22;5022706;28;11683;-71
2022/04/25 03:42:51;;;;;;;;;18.75;18.75;;;;;9.83;79.39;-18746.88;5024193;28;11213;-71
2022/04/25 03:45:18;;;;;;;;;12.50;12.50;;;;;9.93;78.70;-18749.59;5010454;28;11184;-70
2022/04/25 03:47:45;;;;;;;;;23.25;16.25;;;;;9.90;78.54;-18748.84;5010336;28;10784;-70
2022/04/25 03:50:13;;;;;;;;;17.50;17.50;;;;;9.75;78.92;-18744.31;5028891;28;10999;-70
2022/04/25 03:52:42;;;;;;;;;16.25;14.00;;;;;9.83;78.46;-18746.72;5022743;28;11035;-70
2022/04/25 03:58:04;;;;;;;;;17.00;14.00;;;;;9.87;78.69;-18747.94;5033758;28;11795;-70
2022/04/25 04:00:32;;;;;;;;;13.50;12.50;;;;;9.94;77.98;-18749.91;5034220;28;10988;-71
2022/04/25 04:02:59;;;;;;;;;16.00;15.00;;;;;9.93;77.89;-18749.75;5027066;28;10949;-70
2022/04/25 04:05:27;;;;;;;;;14.00;12.75;;;;;9.88;78.17;-18748.22;5030864;28;10806;-70
2022/04/25 04:07:54;;;;;;;;;17.50;13.00;;;;;9.86;77.97;-18747.63;5028020;28;10983;-70
2022/04/25 04:10:21;;;;;;;;;16.00;12.00;;;;;9.93;78.28;-18749.75;5031267;28;10993;-71
2022/04/25 04:12:47;;;;;;;;;17.25;12.25;;;;;9.98;78.41;-18751.09;5013550;28;10951;-71
2022/04/25 04:15:17;;;;;;;;;10.75;9.50;;;;;10.10;77.33;-18754.72;5031155;28;10955;-70
2022/04/25 04:17:44;;;;;;;;;7.50;7.50;;;;;10.10;77.62;-18754.88;5033298;28;10897;-70
2022/04/25 04:20:13;;;;;;;;;15.75;15.00;;;;;10.08;77.75;-18754.13;5033807;28;10744;-71
2022/04/25 04:22:40;;;;;;;;;16.00;16.00;;;;;10.16;77.39;-18756.53;5033600;28;10904;-70
2022/04/25 04:25:12;;;;;;;;;10.75;10.00;;;;;10.14;77.98;-18756.09;5033699;28;11132;-71
2022/04/25 04:27:40;;;;;;;;;10.75;9.75;;;;;10.02;78.20;-18752.47;5029161;28;10732;-70
2022/04/25 04:30:09;;;;;;;;;18.75;16.00;;;;;10.12;78.58;-18755.31;5029004;28;10826;-70
2022/04/25 04:32:38;;;;;;;;;22.50;15.75;;;;;10.02;79.54;-18752.47;5033397;28;10985;-70
2022/04/25 04:35:08;;;;;;;;;14.25;11.50;;;;;10.12;79.49;-18755.47;5013762;28;10905;-71
2022/04/25 04:37:37;;;;;;;;;14.50;12.00;;;;;10.14;79.57;-18756.09;5013086;28;11217;-70
2022/04/25 04:42:51;;;;;;;;;11.25;9.25;;;;;10.10;80.01;-18754.88;5018713;28;10887;-70
2022/04/25 04:45:18;;;;;;;;;24.00;17.75;;;;;10.03;80.54;-18752.75;5026922;28;10631;-70
2022/04/25 04:47:44;;;;;;;;;19.25;16.00;;;;;10.03;80.32;-18752.75;5023387;28;11030;-70
2022/04/25 04:50:16;;;;;;;;;19.00;13.50;;;;;9.87;81.72;-18747.94;5030973;28;10971;-70
2022/04/25 04:52:49;;;;;;;;;20.00;19.50;;;;;9.59;82.15;-18739.47;5031689;28;10879;-70
2022/04/25 04:55:15;;;;;;;;;17.75;14.00;;;;;9.68;82.12;-18742.19;5030575;28;11222;-71
2022/04/25 04:57:42;;;;;;;;;17.25;17.25;;;;;9.55;84.46;-18738.44;5010591;28;10955;-70
2022/04/25 05:00:15;;;;;;;;;14.75;14.00;;;;;9.44;85.25;-18735.09;5031065;28;11671;-70
2022/04/25 05:02:43;;;;;;;;;21.00;20.50;;;;;9.29;86.83;-18730.72;5031942;28;11011;-70
2022/04/25 05:05:12;;;;;;;;;19.25;18.25;;;;;9.20;88.27;-18728.16;5031990;28;11107;-71
2022/04/25 05:07:39;;;;;;;;;21.75;16.75;;;;;9.21;88.48;-18728.47;5026070;28;11037;-71
2022/04/25 05:10:07;;;;;;;;;22.00;19.50;;;;;9.05;89.82;-18723.47;5031887;28;11285;-71
2022/04/25 05:12:49;;;;;;;;;16.50;16.25;;;;;9.09;90.72;-18724.69;5032714;28;11203;-70
2022/04/25 05:15:16;;;;;;;;;20.00;17.00;;;;;9.23;91.27;-18729.06;5006033;28;11138;-71
2022/04/25 05:17:44;;;;;;;;;23.50;22.00;;;;;9.06;90.28;-18723.94;5014729;28;11542;-70
2022/04/25 05:20:12;;;;;;;;;19.75;18.25;;;;;9.18;92.18;-18727.41;5028664;28;11549;-70
2022/04/25 05:22:44;;;;;;;;;22.75;21.50;;;;;8.90;90.64;-18719.09;5032809;28;11201;-71
2022/04/25 05:25:14;;;;;;;;;16.75;14.00;;;;;8.93;91.70;-18720.00;5030395;28;11539;-71
2022/04/25 05:27:48;;;;;;;;;15.25;13.25;;;;;8.96;91.76;-18720.91;5032405;28;11126;-71
2022/04/25 05:30:16;;;;;;;;;21.25;20.00;;;;;8.90;90.43;-18719.25;5025443;28;11324;-67
2022/04/25 05:32:54;;;;;;;;;21.25;16.75;;;;;8.96;91.04;-18720.75;5032118;28;11537;-69
2022/04/25 05:35:26;;;;;;;;;19.25;19.25;;;;;9.05;90.82;-18723.63;5013837;28;11202;-69
2022/04/25 05:37:53;;;;;;;;;22.00;19.75;;;;;8.99;90.37;-18721.81;5031901;28;11539;-67
2022/04/25 05:40:21;;;;;;;;;17.75;17.25;;;;;8.97;90.67;-18721.22;5032336;28;11593;-69
2022/04/25 05:42:49;;;;;;;;;18.25;18.25;;;;;8.87;90.90;-18718.34;5027810;28;11520;-71
2022/04/25 05:45:18;;;;;;;;;20.00;18.75;;;;;8.83;90.66;-18717.00;5030465;28;11523;-68
2022/04/25 05:47:45;;;;;;;;;21.50;19.50;;;;;8.86;91.76;-18718.03;5012544;28;11288;-68
2022/04/25 05:53:00;;;;;;;;;28.00;24.00;;;;;8.96;91.72;-18720.91;5031383;28;11618;-69
2022/04/25 05:55:28;;;;;;;;;28.50;26.00;;;;;8.78;90.31;-18715.63;5020056;28;11538;-69
2022/04/25 05:57:55;;;;;;;;;28.25;26.25;;;;;8.67;90.17;-18712.31;5011437;28;11533;-68
2022/04/25 06:00:26;;;;;;;;;19.00;17.00;;;;;8.80;90.80;-18716.09;5026121;28;11649;-68
2022/04/25 06:02:52;;;;;;;;;15.75;15.25;;;;;8.72;90.58;-18713.66;5021247;28;12260;-69
2022/04/25 06:05:19;;;;;;;;;22.50;21.50;;;;;8.69;89.71;-18712.75;5026251;28;11493;-69
2022/04/25 06:07:47;;;;;;;;;26.75;24.75;;;;;8.67;89.34;-18712.31;5016465;28;12310;-70
2022/04/25 06:10:17;;;;;;;;;24.75;22.75;;;;;8.69;89.89;-18712.75;5031404;28;11537;-69
2022/04/25 06:12:48;;;;;;;;;26.00;20.25;;;;;8.78;89.61;-18715.47;5020019;28;11553;-68
2022/04/25 06:15:17;;;;;;;;;26.25;25.00;;;;;8.59;88.55;-18710.03;5007927;28;11520;-69
2022/04/25 06:17:49;;;;;;;;;27.25;22.50;;;;;8.82;89.01;-18716.84;5019471;28;12297;-68
2022/04/25 06:20:16;;;;;;;;;31.25;24.00;;;;;8.60;88.68;-18710.34;5011168;28;11554;-69
2022/04/25 06:22:54;;;;;;;;;25.50;24.25;;;;;8.68;89.09;-18712.47;5011113;28;12307;-70
2022/04/25 06:25:21;;;;;;;;;27.50;23.50;;;;;8.73;88.69;-18713.97;4994634;28;11598;-69
2022/04/25 06:27:48;;;;;;;;;22.50;20.75;;;;;8.99;89.66;-18721.66;5006940;28;11535;-68
2022/04/25 06:30:14;;;;;;;;;31.75;26.00;;;;;8.80;87.94;-18716.09;5014329;28;11515;-68
2022/04/25 06:32:41;;;;;;;;;28.25;20.50;;;;;8.94;87.99;-18720.47;5026628;28;11623;-70
2022/04/25 06:35:08;;;;;;;;;22.75;20.25;;;;;8.73;87.69;-18714.13;5008502;28;11651;-68
2022/04/25 06:37:35;;;;;;;;;16.50;16.50;;;;;8.65;88.16;-18711.69;5009791;28;11664;-68
2022/04/25 06:40:04;;;;;;;;;21.00;19.50;;;;;8.73;87.59;-18713.97;5016674;28;11254;-70
2022/04/25 06:42:31;;;;;;;;;26.00;21.00;;;;;8.87;87.99;-18718.34;4993320;28;11318;-68
2022/04/25 06:44:57;;;;;;;;;20.25;16.75;;;;;8.81;87.47;-18716.38;5014734;28;11561;-69
2022/04/25 06:47:24;;;;;;;;;20.50;15.50;;;;;8.81;87.75;-18716.38;5013896;28;11349;-69
2022/04/25 06:49:52;;;;;;;;;16.00;15.00;;;;;9.00;88.37;-18721.97;5013912;28;12338;-68
2022/04/25 06:52:20;;;;;;;;;16.50;16.50;;;;;8.99;87.84;-18721.66;5013834;28;11570;-68
2022/04/25 06:54:47;;;;;;;;;27.50;21.00;;;;;8.64;86.55;-18711.41;5015723;28;11186;-71
2022/04/25 06:57:14;;;;;;;;;20.25;17.00;;;;;8.65;87.57;-18711.69;5012887;28;11514;-68
2022/04/25 06:59:41;;;;;;;;;18.00;14.50;;;;;8.81;87.27;-18716.53;5013721;28;12297;-68
2022/04/25 07:02:08;;;;;;;;;29.25;25.50;;;;;8.74;86.86;-18714.28;5016135;28;11863;-68
2022/04/25 07:04:34;;;;;;;;;23.25;21.50;;;;;8.70;86.92;-18713.06;5013049;28;11574;-68
2022/04/25 07:07:01;;;;;;;;;19.50;13.50;;;;;8.75;86.93;-18714.72;5014930;28;11539;-69
2022/04/25 07:09:27;;;;;;;;;20.25;15.75;;;;;8.88;86.53;-18718.66;5016180;28;11331;-70
2022/04/25 07:11:54;;;;;;;;;26.75;23.25;;;;;8.75;86.43;-18714.56;5022584;28;11227;-68
2022/04/25 07:14:21;;;;;;;;;22.00;19.75;;;;;8.82;86.79;-18716.69;5016007;28;11521;-69
2022/04/25 07:16:51;;;;;;;;;16.25;16.25;;;;;8.81;85.69;-18716.38;5014550;28;11751;-68
2022/04/25 07:19:21;;;;;;;;;20.00;16.25;;;;;8.90;86.89;-18719.09;5010619;28;11276;-67
2022/04/25 07:30:05;;;;;;;;;21.75;18.50;;;;;9.18;84.77;-18727.56;5015345;28;11521;-69
2022/04/25 07:32:32;;;;;;;;;23.75;21.00;;;;;9.07;84.19;-18724.22;5016133;28;11534;-69
2022/04/25 07:35:01;;;;;;;;;20.75;17.75;;;;;8.90;83.09;-18719.25;5010470;28;11567;-67
2022/04/25 07:37:28;;;;;;;;;28.25;22.75;;;;;8.86;83.90;-18718.03;5015117;28;11206;-68
2022/04/25 07:39:56;;;;;;;;;25.75;22.25;;;;;8.83;83.19;-18717.13;5021907;28;11548;-69
2022/04/25 07:42:22;;;;;;;;;20.00;19.25;;;;;9.02;83.64;-18722.56;5022972;28;11527;-68
2022/04/25 07:44:49;;;;;;;;;26.00;22.75;;;;;8.97;83.12;-18721.06;5023042;28;11214;-68
2022/04/25 07:47:16;;;;;;;;;13.00;13.00;;;;;8.83;83.66;-18717.00;5025852;28;11405;-68
2022/04/25 07:49:43;;;;;;;;;14.75;14.75;;;;;9.02;84.17;-18722.72;5020225;28;10968;-67
2022/04/25 07:52:13;;;;;;;;;23.75;22.50;;;;;9.06;85.32;-18723.78;5018545;28;11296;-69
2022/04/25 07:54:40;;;;;;;;;19.00;19.00;;;;;8.84;86.38;-18717.28;5015046;28;11548;-69
2022/04/25 07:57:06;;;;;;;;;20.50;20.00;;;;;8.85;85.90;-18717.75;5001874;28;11255;-68
2022/04/25 07:59:33;;;;;;;;;23.50;19.50;;;;;8.75;86.80;-18714.56;5013746;28;11298;-69
2022/04/25 08:02:02;;;;;;;;;28.50;25.75;;;;;8.83;87.35;-18717.00;5018468;28;11546;-68
2022/04/25 08:04:29;;;;;;;;;22.75;19.25;;;;;8.88;86.59;-18718.50;5007515;28;11547;-69
2022/04/25 08:06:56;;;;;;;;;21.00;18.50;;;;;8.87;86.42;-18718.34;5016340;28;12345;-69
2022/04/25 08:09:23;;;;;;;;;28.25;27.25;;;;;9.02;87.55;-18722.56;5024694;28;11312;-68
2022/04/25 08:17:56;;;;;;;;;21.00;18.50;;;;;8.97;85.92;-18721.06;5020509;28;11538;-68
2022/04/25 08:19:47;;;;;;;;;25.00;22.50;;;;;9.36;84.85;-18732.84;5020733;28;11418;-68
2022/04/25 08:22:14;;;;;;;;;24.50;22.50;;;;;9.17;83.82;-18727.09;5018895;28;11509;-70
2022/04/25 08:24:40;;;;;;;;;20.25;19.50;;;;;9.17;84.86;-18727.25;5023309;28;11616;-68
2022/04/25 08:27:07;;;;;;;;;21.25;21.25;;;;;9.40;84.98;-18734.03;5023672;28;11331;-68
2022/04/25 08:29:36;;;;;;;;;25.25;18.00;;;;;9.34;83.16;-18732.09;5004062;28;11601;-67
2022/04/25 08:32:02;;;;;;;;;23.25;21.75;;;;;9.21;82.76;-18728.31;5020393;28;11121;-69
2022/04/25 08:34:29;;;;;;;;;24.00;19.50;;;;;9.36;82.01;-18732.84;5024805;28;11550;-69
2022/04/25 08:36:55;;;;;;;;;19.50;18.75;;;;;9.12;82.10;-18725.59;5017488;28;11333;-67
2022/04/25 08:39:22;;;;;;;;;16.25;13.50;;;;;9.21;83.62;-18728.31;5020590;28;11951;-69
2022/04/25 08:41:56;;;;;;;;;19.25;18.00;;;;;9.04;82.26;-18723.34;5025679;28;11138;-70
2022/04/25 08:44:24;;;;;;;;;21.50;17.75;;;;;9.10;82.43;-18725.00;5024815;28;11337;-67
2022/04/25 08:46:52;;;;;;;;;17.75;15.75;;;;;9.11;83.22;-18725.28;5010009;28;11181;-69
2022/04/25 08:49:19;;;;;;;;;25.00;18.00;;;;;9.13;82.99;-18726.03;5026607;28;11137;-70
2022/04/25 08:51:47;;;;;;;;;16.00;15.25;;;;;9.14;82.65;-18726.34;5029688;28;11232;-69
2022/04/25 08:54:14;;;;;;;;;25.75;25.50;;;;;9.27;83.40;-18730.13;5025855;28;11160;-69
2022/04/25 08:56:42;;;;;;;;;20.50;16.00;;;;;9.42;83.46;-18734.50;5028692;28;12573;-68
2022/04/25 08:59:09;;;;;;;;;23.00;18.00;;;;;9.45;82.72;-18735.41;5025372;28;11234;-69
2022/04/25 09:01:39;;;;;;;;;26.25;23.00;;;;;9.25;82.25;-18729.66;5024956;28;11657;-69
2022/04/25 09:04:06;;;;;;;;;18.25;16.00;;;;;9.25;82.15;-18729.53;5023713;28;11309;-70
2022/04/25 09:06:33;;;;;;;;;9.25;9.25;;;;;9.41;81.70;-18734.34;5026967;28;11165;-69
2022/04/25 09:08:59;;;;;;;;;17.50;17.00;;;;;9.33;81.80;-18731.94;5020342;28;11079;-69
2022/04/25 09:14:13;;;;;;;;;15.25;13.75;;;;;9.46;81.38;-18735.72;5025076;28;11276;-68
2022/04/25 09:16:40;;;;;;;;;17.50;16.50;;;;;9.53;81.40;-18737.81;5021647;28;10912;-69
2022/04/25 09:19:07;;;;;;;;;18.00;18.00;;;;;9.44;81.54;-18735.09;5023640;28;11107;-69
2022/04/25 09:21:44;;;;;;;;;24.75;21.75;;;;;9.34;81.48;-18732.09;5023767;28;11207;-69
2022/04/25 09:24:24;;;;;;;;;23.50;21.00;;;;;9.38;80.85;-18733.28;5008397;28;11310;-68
2022/04/25 09:27:19;;;;;;;;;24.75;20.75;;;;;9.50;81.67;-18737.06;5018579;28;11155;-69
2022/04/25 09:29:48;;;;;;;;;24.25;21.75;;;;;9.56;80.34;-18738.88;5008475;28;11271;-68
2022/04/25 09:32:17;;;;;;;;;14.25;14.00;;;;;9.55;80.55;-18738.56;5027513;28;11301;-69
2022/04/25 09:37:47;;;;;;;;;21.25;18.00;;;;;9.78;79.81;-18745.22;5023102;28;11309;-68
2022/04/25 09:40:19;;;;;;;;;28.25;24.50;;;;;9.57;78.93;-18739.03;5023155;28;11208;-68
2022/04/25 09:42:47;;;;;;;;;24.00;22.50;;;;;9.60;79.83;-18739.78;5009484;28;12296;-68
2022/04/25 09:45:15;;;;;;;;;22.00;19.50;;;;;9.51;80.51;-18737.38;5023526;28;11309;-70
2022/04/25 09:47:41;;;;;;;;;19.75;16.50;;;;;9.59;80.19;-18739.47;5023972;28;11070;-68
2022/04/25 09:50:09;;;;;;;;;16.25;14.75;;;;;9.60;80.88;-18739.94;5023680;28;11747;-69
2022/04/25 09:53:02;;;;;;;;;25.50;25.50;;;;;9.41;80.33;-18734.19;5006652;28;10891;-68
2022/04/25 09:55:30;;;;;;;;;22.75;22.25;;;;;9.42;81.17;-18734.66;5021400;28;11212;-68
2022/04/25 09:57:57;;;;;;;;;26.00;21.25;;;;;9.46;81.36;-18735.72;5019908;28;11240;-69
2022/04/25 10:00:32;;;;;;;;;22.25;17.75;;;;;9.41;80.77;-18734.34;5024014;28;11542;-69
2022/04/25 10:03:03;;;;;;;;;26.25;21.75;;;;;9.45;81.17;-18735.56;5023385;28;11164;-69
2022/04/25 10:05:46;;;;;;;;;27.25;25.00;;;;;9.50;81.38;-18737.06;5027235;28;11226;-68
2022/04/25 10:08:15;;;;;;;;;22.00;22.00;;;;;9.52;80.85;-18737.53;5023782;28;11525;-69
2022/04/25 10:10:50;;;;;;;;;19.75;19.75;;;;;9.52;79.92;-18737.66;5016478;28;11249;-69
2022/04/25 10:13:18;;;;;;;;;26.25;24.00;;;;;9.29;79.34;-18730.56;4996731;28;12020;-70
2022/04/25 10:15:45;;;;;;;;;28.00;25.50;;;;;9.29;80.37;-18730.72;5014101;28;11218;-68
2022/04/25 10:18:13;;;;;;;;;15.75;15.75;;;;;9.32;80.71;-18731.47;5016472;28;11587;-71
2022/04/25 10:20:42;;;;;;;;;24.25;23.25;;;;;9.24;80.61;-18729.38;5016922;28;10920;-68
2022/04/25 10:23:11;;;;;;;;;20.00;18.75;;;;;9.23;81.00;-18728.91;5026531;28;11202;-69
2022/04/25 10:25:40;;;;;;;;;26.00;22.50;;;;;9.06;81.59;-18723.78;5026277;28;11889;-69
2022/04/25 10:28:17;;;;;;;;;24.75;23.75;;;;;9.21;80.87;-18728.31;5018489;28;11307;-68
2022/04/25 10:30:49;;;;;;;;;19.25;19.25;;;;;9.22;80.87;-18728.75;5025619;28;11539;-69
2022/04/25 10:33:21;;;;;;;;;19.75;15.25;;;;;9.40;80.74;-18734.03;5008332;28;11260;-68
2022/04/25 10:35:50;;;;;;;;;23.25;21.75;;;;;9.25;80.35;-18729.53;5024041;28;11328;-68
2022/04/25 10:38:47;;;;;;;;;28.75;19.75;;;;;9.34;80.17;-18732.25;5022205;28;11045;-69
2022/04/25 10:44:26;;;;;;;;;22.00;17.00;;;;;9.77;83.72;-18745.06;5009001;28;11231;-69
2022/04/25 10:47:05;;;;;;;;;23.25;18.75;;;;;9.41;78.33;-18734.19;5023375;28;11790;-68
2022/04/25 10:49:38;;;;;;;;;14.75;14.00;;;;;9.42;78.64;-18734.66;5026655;28;12194;-69
2022/04/25 10:52:26;;;;;;;;;27.50;22.00;;;;;9.29;78.73;-18730.72;5006019;28;11049;-68
2022/04/25 10:55:11;;;;;;;;;21.50;18.00;;;;;9.19;80.15;-18727.72;5017403;28;11255;-69
2022/04/25 10:58:04;;;;;;;;;23.75;20.50;;;;;9.07;80.72;-18724.09;5023606;28;11203;-69
2022/04/25 11:00:37;;;;;;;;;28.75;27.00;;;;;8.97;81.62;-18721.22;5025949;28;11135;-69
2022/04/25 11:03:05;;;;;;;;;27.50;23.25;;;;;9.08;82.82;-18724.53;5025229;28;11535;-69
2022/04/25 11:05:32;;;;;;;;;30.25;25.75;;;;;9.03;84.60;-18723.03;5025734;28;11519;-68
2022/04/25 11:08:20;;;;;;;;;22.75;21.75;;;;;9.04;84.94;-18723.19;5024534;28;11286;-69
2022/04/25 11:10:48;;;;;;;;;20.75;17.50;;;;;9.01;86.39;-18722.44;5017730;28;11288;-70
2022/04/25 11:13:22;;;;;;;;;19.00;14.50;;;;;9.22;87.96;-18728.75;5024961;28;11032;-69
2022/04/25 11:16:15;;;;;;;;;24.75;22.50;;;;;9.14;86.59;-18726.19;5021548;28;11249;-67
2022/04/25 11:18:42;;;;;;;;;21.00;20.50;;;;;9.09;86.06;-18724.69;5023039;28;11243;-68
2022/04/25 11:21:14;;;;;;;;;21.25;21.25;;;;;8.87;85.12;-18718.34;5021567;28;11622;-70
2022/04/25 11:23:44;;;;;;;;;18.00;15.00;;;;;9.08;86.43;-18724.38;5021867;28;11539;-70
2022/04/25 11:26:30;;;;;;;;;26.50;24.50;;;;;9.09;86.10;-18724.69;5013609;28;11096;-71
2022/04/25 11:31:25;;;;;;;;;19.25;16.75;;;;;9.14;87.36;-18726.19;5020880;28;11313;-69
2022/04/25 11:33:55;;;;;;;;;22.75;21.00;;;;;9.01;85.84;-18722.44;5025666;28;11037;-70
2022/04/25 11:36:23;;;;;;;;;25.50;22.50;;;;;8.98;86.78;-18721.38;5027120;28;11155;-69
2022/04/25 11:41:38;;;;;;;;;27.75;25.50;;;;;8.80;85.83;-18716.22;5024894;28;11932;-69
2022/04/25 11:44:06;;;;;;;;;15.75;15.75;;;;;8.95;87.05;-18720.63;5020910;28;11524;-70
2022/04/25 11:46:35;;;;;;;;;22.25;19.00;;;;;9.14;88.31;-18726.19;5025454;28;12118;-70
2022/04/25 11:49:03;;;;;;;;;26.75;25.00;;;;;8.96;85.74;-18720.91;5026013;28;12284;-69
2022/04/25 11:51:40;;;;;;;;;24.00;18.25;;;;;8.81;85.70;-18716.38;5023625;28;11636;-69
2022/04/25 11:54:09;;;;;;;;;18.00;16.25;;;;;8.80;85.96;-18716.09;5027170;28;13247;-69
2022/04/25 11:56:39;;;;;;;;;20.00;19.50;;;;;8.99;86.68;-18721.66;5025343;28;11033;-69
2022/04/25 11:59:19;;;;;;;;;15.75;15.75;;;;;9.01;86.68;-18722.44;5008511;28;11566;-69
2022/04/25 12:01:48;;;;;;;;;24.25;18.25;;;;;9.00;86.07;-18721.97;5017197;28;11327;-69
2022/04/25 12:04:24;;;;;;;;;16.50;16.50;;;;;9.13;85.93;-18725.91;5024406;28;12027;-70